Buoy 48684

sailwx.info

Track history (hours):
 
Tides and Currents Weather Stations Pressure Air Temp Water Temp Dewpoint Dewpoint Depression Visibility Wind Speed Wind Dir Waves Ship Positions

Drifting buoy 48684

Last reported at 2011-Apr-26 18:00 UTC. Time now 2020-Jan-20 21:31 UTC.
Position N 68°06' W 029°23'.
Warning: this ship's position is years out of date!

Barometer 1006.4 mb
Air temperature -28.9 ° C

Date/timePositionNaut miles runAvg speedWind from/ knotsBaromVisibWave heightAir tempDewpointWater temp
2011-Apr-26 18:00N 68°06' W 029°23'0 0.4 1006.4 -28.9
2011-Apr-26 17:00N 68°06' W 029°22'0 0.3 1006.8 -28.9
2011-Apr-26 16:00N 68°06' W 029°21'0 0.1 1007.1 -28.9
2011-Apr-26 15:00N 68°06' W 029°21'0 0.2 1007.6 -28.9
2011-Apr-26 14:00N 68°06' W 029°20'0 0.2 1007.9 -28.9
2011-Apr-26 13:00N 68°06' W 029°20'0 0.2 1008.0 -28.9
2011-Apr-26 12:00N 68°06' W 029°19'0 0.3 1008.3 -28.9
2011-Apr-26 11:00N 68°07' W 029°19'0 0.4 1008.2 -28.9
2011-Apr-26 10:00N 68°07' W 029°18'0 0.4 1008.0 -28.9
2011-Apr-26 09:00N 68°07' W 029°17'0 0.3 1008.0 -28.9
2011-Apr-26 08:00N 68°07' W 029°16'0 0.2 1007.6 -29.0
2011-Apr-26 07:00N 68°07' W 029°16'0 0.0 1007.2 -29.0
2011-Apr-26 06:00N 68°07' W 029°16'0 0.0 1007.1 -29.0
2011-Apr-26 05:00N 68°07' W 029°15'0 0.0 1006.7 -29.0
2011-Apr-26 04:00N 68°07' W 029°15'0 0.1 1006.5 -29.0
2011-Apr-25 23:00N 68°07' W 029°14'0 0.3 1005.4 -29.1
2011-Apr-25 22:00N 68°07' W 029°14'0 0.3 1005.1 -29.1
2011-Apr-25 21:00N 68°07' W 029°13'0 0.3 1004.6 -29.1
2011-Apr-25 20:00N 68°08' W 029°12'0 0.3 1004.3 -29.1
2011-Apr-25 19:00N 68°08' W 029°12'0 0.2 1003.8 -29.1
2011-Apr-25 18:00N 68°08' W 029°11'0 0.1 1003.6 -29.1
2011-Apr-25 17:00N 68°08' W 029°11'0 0.1 1003.4 -29.1
2011-Apr-25 16:00N 68°08' W 029°11'0 0.0 1003.3 -29.1
2011-Apr-25 15:00N 68°08' W 029°11'0 0.0 1003.0 -29.2
2011-Apr-25 14:00N 68°08' W 029°11'0 0.1 1002.5 -29.2
2011-Apr-25 13:00N 68°08' W 029°11'0 0.2 1002.0 -29.2
2011-Apr-25 12:00N 68°08' W 029°10'0 0.3 1001.5 -29.2
2011-Apr-25 11:00N 68°08' W 029°09'0 0.4 1001.0 -29.3
2011-Apr-25 10:00N 68°08' W 029°08'1 0.5 1000.3 -29.3
2011-Apr-25 09:00N 68°09' W 029°07'1 0.5 999.6 -29.3
2011-Apr-25 08:00N 68°09' W 029°05'1 0.6 998.8 -29.3
2011-Apr-25 07:00N 68°09' W 029°04'1 0.5 997.6 -29.4
2011-Apr-25 06:00N 68°09' W 029°03'0 0.4 996.4 -29.4
2011-Apr-25 05:00N 68°09' W 029°01'0 0.3 995.3 -29.4
2011-Apr-25 04:00N 68°09' W 029°01'1 0.2 994.4 -29.5
2011-Apr-25 01:00N 68°09' W 028°59'0 0.3 991.4 -29.5
2011-Apr-25 00:00N 68°10' W 028°58'0 0.3 990.3 -29.6
2011-Apr-24 23:00N 68°10' W 028°58'0 0.4 988.7 -29.6
2011-Apr-24 22:00N 68°10' W 028°57'1 0.5 987.3 -29.7
2011-Apr-24 21:00N 68°10' W 028°55'1 0.5 986.3 -29.7
2011-Apr-24 20:00N 68°10' W 028°54'1 0.6 985.4 -29.8
2011-Apr-24 19:00N 68°10' W 028°52'0 0.5 984.6 -29.8
2011-Apr-24 18:00N 68°10' W 028°51'0 0.4 983.9 -29.9
2011-Apr-24 17:00N 68°10' W 028°50'0 0.3 983.5 -29.9
2011-Apr-24 16:00N 68°11' W 028°49'0 0.2 983.8 -30.0
2011-Apr-24 15:00N 68°11' W 028°49'0 0.1 984.1 -30.1
2011-Apr-24 14:00N 68°11' W 028°49'0 0.1 984.2 -30.2
2011-Apr-24 13:00N 68°11' W 028°48'0 0.2 984.2 -30.3
2011-Apr-24 12:00N 68°11' W 028°48'0 0.2 984.1 -30.4
2011-Apr-24 11:00N 68°11' W 028°47'0 0.4 984.5 -30.5
2011-Apr-24 10:00N 68°11' W 028°46'0 0.4 985.1 -30.5
2011-Apr-24 09:00N 68°11' W 028°45'0 0.5 986.0 -30.5
2011-Apr-24 08:00N 68°11' W 028°44'1 0.6 986.6 -30.6
2011-Apr-24 07:00N 68°11' W 028°42'1 0.6 987.1 -30.6
2011-Apr-24 06:00N 68°12' W 028°41'0 0.4 987.9 -30.7
2011-Apr-24 05:00N 68°12' W 028°40'0 0.2 988.7 -30.7
2011-Apr-24 04:00N 68°12' W 028°39'0 0.2 989.8 -30.7
2011-Apr-24 03:00N 68°12' W 028°39'0 0.0 991.3 -30.7
2011-Apr-23 23:00N 68°12' W 028°39'0 0.2 996.5 -30.8
2011-Apr-23 22:00N 68°12' W 028°39'0 0.4 997.4 -30.8
2011-Apr-23 21:00N 68°12' W 028°38'1 0.5 998.6 -30.9
2011-Apr-23 20:00N 68°12' W 028°36'1 0.7 999.5 -30.9
2011-Apr-23 19:00N 68°13' W 028°35'1 0.7 1000.7 -30.9
2011-Apr-23 18:00N 68°13' W 028°33'1 0.7 1001.4 -30.9
2011-Apr-23 17:00N 68°13' W 028°31'1 0.5 1001.8 -30.9
2011-Apr-23 16:00N 68°13' W 028°30'1 0.3 1002.3 -30.9
2011-Apr-23 14:00N 68°14' W 028°29'0 0.1 1003.4 -31.0
2011-Apr-23 13:00N 68°14' W 028°28'0 0.1 1003.7 -31.0
2011-Apr-23 12:00N 68°14' W 028°28'0 0.1 1003.5 -31.0
2011-Apr-23 11:00N 68°14' W 028°28'0 0.2 1003.6 -31.0
2011-Apr-23 10:00N 68°14' W 028°27'0 0.4 1003.6 -31.0
2011-Apr-23 09:00N 68°14' W 028°26'1 0.5 1003.1 -31.0
2011-Apr-23 08:00N 68°14' W 028°25'1 0.7 1003.1 -31.1
2011-Apr-23 07:00N 68°14' W 028°23'1 0.8 1002.6 -31.1
2011-Apr-23 06:00N 68°14' W 028°21'1 0.6 1002.1 -31.1
2011-Apr-23 05:00N 68°14' W 028°19'0 0.1 1001.7 -31.1
2011-Apr-23 00:00N 68°14' W 028°18'0 0.0 999.7 -31.2
2011-Apr-22 23:00N 68°14' W 028°18'0 0.1 999.5 -31.2
2011-Apr-22 22:00N 68°14' W 028°18'0 0.4 998.7 -31.2
2011-Apr-22 21:00N 68°14' W 028°17'1 0.6 997.8 -31.2
2011-Apr-22 20:00N 68°14' W 028°15'1 0.9 997.1 -31.2
2011-Apr-22 19:00N 68°15' W 028°13'1 1.0 996.7 -31.2
2011-Apr-22 18:00N 68°15' W 028°10'1 0.7 996.3 -31.2
2011-Apr-22 17:00N 68°15' W 028°08'1 0.5 995.4 -31.2
2011-Apr-22 16:00N 68°15' W 028°07'0 0.3 994.6 -31.2
2011-Apr-22 15:00N 68°15' W 028°07'0 0.2 993.1 -31.2
2011-Apr-22 14:00N 68°15' W 028°06'0 0.0 992.1 -31.2
2011-Apr-22 13:00N 68°15' W 028°06'0 0.0 992.1 -31.2
2011-Apr-22 12:00N 68°15' W 028°06'0 0.0 992.4 -31.2
2011-Apr-22 11:00N 68°15' W 028°06'0 0.3 992.5 -31.2
2011-Apr-22 10:00N 68°15' W 028°05'1 0.5 991.7 -31.2
2011-Apr-22 09:00N 68°15' W 028°04'1 0.8 992.3 -31.2
2011-Apr-22 08:00N 68°15' W 028°02'3 1.3 991.9 -31.3
2011-Apr-22 06:00N 68°16' W 027°55'2 1.6 989.8 -31.3
2011-Apr-22 05:00N 68°16' W 027°50'1 1.5 990.1 -31.2
2011-Apr-22 04:00N 68°16' W 027°46'1 1.2 991.2 -31.3
2011-Apr-22 03:00N 68°17' W 027°43'1 0.9 992.1 -31.3
2011-Apr-22 02:00N 68°17' W 027°41'1 0.4 992.9 -31.3
2011-Apr-21 23:00N 68°17' W 027°38'0 0.2 997.5 -31.2
2011-Apr-21 22:00N 68°17' W 027°37'0 0.4 998.6 -31.3
2011-Apr-21 21:00N 68°17' W 027°36'1 0.6 1000.6 -31.3
2011-Apr-21 20:00N 68°17' W 027°34'1 0.9 1001.3 -31.3
2011-Apr-21 19:00N 68°17' W 027°32'1 1.1 1002.0 -31.2
2011-Apr-21 18:00N 68°17' W 027°29'1 1.2 1002.4 -31.3
2011-Apr-21 17:00N 68°18' W 027°26'1 1.1 1002.3 -31.3
2011-Apr-21 16:00N 68°18' W 027°23'1 0.9 1002.3 -31.3
2011-Apr-21 15:00N 68°18' W 027°21'0 0.5 1002.9 -31.3
2011-Apr-21 14:00N 68°18' W 027°20'0 0.2 1003.0 -31.3
2011-Apr-21 13:00N 68°19' W 027°19'0 0.1 1002.8 -31.3
2011-Apr-21 12:00N 68°19' W 027°20'0 0.4 1002.4 -31.3
2011-Apr-21 11:00N 68°19' W 027°21'0 0.4 1002.2 -31.3
2011-Apr-21 10:00N 68°18' W 027°21'0 0.2 1001.3 -31.3
2011-Apr-21 09:00N 68°18' W 027°22'0 0.1 1000.5 -31.3
2011-Apr-21 08:00N 68°18' W 027°22'0 0.4 999.8 -31.3
2011-Apr-21 07:00N 68°18' W 027°20'1 0.6 999.0 -31.3
2011-Apr-21 06:00N 68°19' W 027°19'1 0.9 998.5 -31.3
2011-Apr-21 05:00N 68°19' W 027°16'1 1.0 997.1 -31.3
2011-Apr-21 04:00N 68°19' W 027°14'1 0.8 995.9 -31.3
2011-Apr-21 03:00N 68°20' W 027°12'1 0.5 994.8 -31.3
2011-Apr-21 02:00N 68°20' W 027°11'0 0.1 993.2 -31.3
2011-Apr-20 23:00N 68°20' W 027°12'0 0.2 987.9 -31.3
2011-Apr-20 22:00N 68°20' W 027°13'0 0.1 986.4 -31.3
2011-Apr-20 21:00N 68°20' W 027°13'0 0.3 984.8 -31.3
2011-Apr-20 20:00N 68°20' W 027°12'1 0.8 983.7 -31.3
2011-Apr-20 19:00N 68°20' W 027°10'1 1.3 982.8 -31.3
2011-Apr-20 18:00N 68°20' W 027°06'2 1.6 983.0 -31.3
2011-Apr-20 17:00N 68°20' W 027°02'2 1.6 982.1 -31.3
2011-Apr-20 16:00N 68°20' W 026°58'1 1.5 983.1 -31.3
2011-Apr-20 15:00N 68°21' W 026°54'1 1.2 984.0 -31.3
2011-Apr-20 14:00N 68°21' W 026°51'1 0.8 984.8 -31.3
2011-Apr-20 13:00N 68°22' W 026°49'0 0.4 985.3 -31.3
2011-Apr-20 12:00N 68°22' W 026°49'0 0.2 985.5 -31.3
2011-Apr-20 11:00N 68°22' W 026°49'0 0.4 985.7 -31.3
2011-Apr-20 10:00N 68°22' W 026°50'0 0.5 985.7 -31.4
2011-Apr-20 09:00N 68°22' W 026°52'0 0.3 985.8 -31.3
2011-Apr-20 08:00N 68°22' W 026°52'0 0.2 985.6 -31.3
2011-Apr-20 07:00N 68°22' W 026°52'0 0.4 985.6 -31.4
2011-Apr-20 06:00N 68°22' W 026°51'1 0.8 985.6 -31.4
2011-Apr-20 05:00N 68°22' W 026°49'1 1.0 985.7 -31.4
2011-Apr-20 04:00N 68°23' W 026°46'3 0.7 986.2 -31.4
2011-Apr-20 00:00N 68°24' W 026°40'0 0.3 987.8 -31.4
2011-Apr-19 23:00N 68°25' W 026°40'0 0.5 988.3 -31.4
2011-Apr-19 22:00N 68°25' W 026°41'1 0.5 988.7 -31.4
2011-Apr-19 21:00N 68°25' W 026°43'0 0.4 988.9 -31.4
2011-Apr-19 20:00N 68°25' W 026°44'0 0.2 989.2 -31.4
2011-Apr-19 19:00N 68°25' W 026°44'0 0.1 989.6 -31.4
2011-Apr-19 18:00N 68°25' W 026°44'0 0.4 989.6 -31.4
2011-Apr-19 17:00N 68°25' W 026°43'1 0.6 990.1 -31.4
2011-Apr-19 16:00N 68°25' W 026°42'1 0.7 990.4 -31.4
2011-Apr-19 15:00N 68°26' W 026°40'1 0.6 990.9 -31.4
2011-Apr-19 14:00N 68°26' W 026°39'0 0.4 991.3 -31.4
2011-Apr-19 13:00N 68°26' W 026°38'0 0.2 991.4 -31.4
2011-Apr-19 12:00N 68°26' W 026°38'0 0.4 991.5 -31.4
2011-Apr-19 11:00N 68°26' W 026°39'1 0.6 991.5 -31.4
2011-Apr-19 10:00N 68°26' W 026°41'1 0.7 991.6 -31.4
2011-Apr-19 09:00N 68°26' W 026°42'1 0.7 991.9 -31.5
2011-Apr-19 08:00N 68°26' W 026°44'0 0.4 992.0 -31.5
2011-Apr-19 07:00N 68°26' W 026°45'0 0.2 992.4 -31.5
2011-Apr-19 06:00N 68°26' W 026°46'0 0.1 992.3 -31.5
2011-Apr-19 05:00N 68°26' W 026°45'0 0.5 992.7 -31.5
2011-Apr-19 04:00N 68°26' W 026°44'1 0.7 992.9 -31.5
2011-Apr-19 03:00N 68°27' W 026°42'1 0.7 993.3 -31.5
2011-Apr-19 02:00N 68°27' W 026°41'1 0.3 993.8 -31.5
2011-Apr-18 23:00N 68°27' W 026°38'0 0.3 995.5 -31.5
2011-Apr-18 22:00N 68°27' W 026°39'1 0.5 996.1 -31.5
2011-Apr-18 21:00N 68°27' W 026°41'1 0.6 996.9 -31.5
2011-Apr-18 20:00N 68°27' W 026°42'1 0.5 997.8 -31.5
2011-Apr-18 19:00N 68°27' W 026°44'0 0.2 998.7 -31.5
2011-Apr-18 18:00N 68°27' W 026°44'0 0.1 999.4 -31.5
2011-Apr-18 17:00N 68°27' W 026°44'0 0.3 1000.5 -31.5
2011-Apr-18 16:00N 68°27' W 026°43'1 0.5 1001.8 -31.5
2011-Apr-18 15:00N 68°28' W 026°42'1 0.6 1003.3 -31.5
2011-Apr-18 13:00N 68°28' W 026°39'0 0.5 1005.2 -31.5
2011-Apr-18 12:00N 68°28' W 026°38'0 0.3 1006.1 -31.6
2011-Apr-18 11:00N 68°28' W 026°37'0 0.1 1007.0 -31.5
2011-Apr-18 10:00N 68°28' W 026°37'0 0.2 1007.8 -31.5
2011-Apr-18 09:00N 68°28' W 026°37'0 0.3 1008.6 -31.6
2011-Apr-18 08:00N 68°28' W 026°38'0 0.3 1009.0 -31.6
2011-Apr-18 07:00N 68°28' W 026°39'0 0.1 1009.6 -31.6
2011-Apr-18 06:00N 68°28' W 026°39'0 0.1 1009.8 -31.6
2011-Apr-18 05:00N 68°28' W 026°39'0 0.3 1010.3 -31.6
2011-Apr-18 04:00N 68°28' W 026°38'1 0.6 1010.4 -31.6
2011-Apr-18 03:00N 68°28' W 026°36'3 2.9 1010.5 -31.6
2011-Apr-18 02:00N 68°26' W 026°35'4 1.9 1010.9 -31.6
2011-Apr-18 00:00N 68°29' W 026°32'0 0.3 1010.9 -31.6
2011-Apr-17 23:00N 68°29' W 026°31'0 0.1 1010.8 -31.6
2011-Apr-17 22:00N 68°29' W 026°31'0 0.1 1010.6 -31.6
2011-Apr-17 21:00N 68°29' W 026°31'0 0.2 1009.8 -31.6
2011-Apr-17 20:00N 68°29' W 026°32'0 0.2 1009.5 -31.6
2011-Apr-17 19:00N 68°29' W 026°32'0 0.0 1008.9 -31.6
2011-Apr-17 18:00N 68°29' W 026°32'0 0.1 1008.0 -31.6
2011-Apr-17 17:00N 68°29' W 026°32'0 0.4 1007.7 -31.6
2011-Apr-17 16:00N 68°29' W 026°31'1 0.6 1007.2 -31.6
2011-Apr-17 15:00N 68°30' W 026°29'1 0.8 1006.5 -31.6
2011-Apr-17 14:00N 68°30' W 026°27'1 0.8 1006.0 -31.6
2011-Apr-17 13:00N 68°30' W 026°25'1 0.6 1005.5 -31.6
2011-Apr-17 12:00N 68°31' W 026°24'0 0.3 1004.9 -31.6
2011-Apr-17 11:00N 68°31' W 026°23'0 0.1 1004.4 -31.6
2011-Apr-17 10:00N 68°31' W 026°23'0 0.1 1003.6 -31.7
2011-Apr-17 09:00N 68°31' W 026°23'0 0.1 1003.0 -31.6
2011-Apr-17 08:00N 68°31' W 026°23'0 0.1 1001.9 -31.7
2011-Apr-17 07:00N 68°31' W 026°23'0 0.1 1001.2 -31.7
2011-Apr-17 06:00N 68°31' W 026°23'0 0.0 1000.4 -31.6
2011-Apr-17 05:00N 68°31' W 026°23'0 0.3 999.5 -31.7
2011-Apr-17 04:00N 68°31' W 026°22'1 0.5 999.0 -31.7
2011-Apr-17 03:00N 68°31' W 026°21'1 0.7 998.4 -31.7
2011-Apr-17 02:00N 68°31' W 026°19'3 0.8 997.7 -31.7
2011-Apr-16 22:00N 68°33' W 026°12'0 0.4 996.2 -31.7
2011-Apr-16 21:00N 68°33' W 026°11'0 0.3 995.2 -31.7
2011-Apr-16 20:00N 68°33' W 026°10'0 0.2 994.5 -31.7
2011-Apr-16 19:00N 68°33' W 026°10'   994.3 -31.7
Track history (hours):
 
Tides and Currents Weather Stations Pressure Air Temp Water Temp Dewpoint Dewpoint Depression Visibility Wind Speed Wind Dir Waves Ship Positions

Drifting buoy 48684

Last reported at 2011-Apr-26 18:00 UTC. Time now 2020-Jan-20 21:31 UTC.
Position N 68°06' W 029°23'.
Warning: this ship's position is years out of date!

Barometer 1006.4 mb
Air temperature -28.9 ° C

Date/timePositionNaut miles runAvg speedWind from/ knotsBaromVisibWave heightAir tempDewpointWater temp
2011-Apr-26 18:00N 68°06' W 029°23'0 0.4 1006.4 -28.9
2011-Apr-26 17:00N 68°06' W 029°22'0 0.3 1006.8 -28.9
2011-Apr-26 16:00N 68°06' W 029°21'0 0.1 1007.1 -28.9
2011-Apr-26 15:00N 68°06' W 029°21'0 0.2 1007.6 -28.9
2011-Apr-26 14:00N 68°06' W 029°20'0 0.2 1007.9 -28.9
2011-Apr-26 13:00N 68°06' W 029°20'0 0.2 1008.0 -28.9
2011-Apr-26 12:00N 68°06' W 029°19'0 0.3 1008.3 -28.9
2011-Apr-26 11:00N 68°07' W 029°19'0 0.4 1008.2 -28.9
2011-Apr-26 10:00N 68°07' W 029°18'0 0.4 1008.0 -28.9
2011-Apr-26 09:00N 68°07' W 029°17'0 0.3 1008.0 -28.9
2011-Apr-26 08:00N 68°07' W 029°16'0 0.2 1007.6 -29.0
2011-Apr-26 07:00N 68°07' W 029°16'0 0.0 1007.2 -29.0
2011-Apr-26 06:00N 68°07' W 029°16'0 0.0 1007.1 -29.0
2011-Apr-26 05:00N 68°07' W 029°15'0 0.0 1006.7 -29.0
2011-Apr-26 04:00N 68°07' W 029°15'0 0.1 1006.5 -29.0
2011-Apr-25 23:00N 68°07' W 029°14'0 0.3 1005.4 -29.1
2011-Apr-25 22:00N 68°07' W 029°14'0 0.3 1005.1 -29.1
2011-Apr-25 21:00N 68°07' W 029°13'0 0.3 1004.6 -29.1
2011-Apr-25 20:00N 68°08' W 029°12'0 0.3 1004.3 -29.1
2011-Apr-25 19:00N 68°08' W 029°12'0 0.2 1003.8 -29.1
2011-Apr-25 18:00N 68°08' W 029°11'0 0.1 1003.6 -29.1
2011-Apr-25 17:00N 68°08' W 029°11'0 0.1 1003.4 -29.1
2011-Apr-25 16:00N 68°08' W 029°11'0 0.0 1003.3 -29.1
2011-Apr-25 15:00N 68°08' W 029°11'0 0.0 1003.0 -29.2
2011-Apr-25 14:00N 68°08' W 029°11'0 0.1 1002.5 -29.2
2011-Apr-25 13:00N 68°08' W 029°11'0 0.2 1002.0 -29.2
2011-Apr-25 12:00N 68°08' W 029°10'0 0.3 1001.5 -29.2
2011-Apr-25 11:00N 68°08' W 029°09'0 0.4 1001.0 -29.3
2011-Apr-25 10:00N 68°08' W 029°08'1 0.5 1000.3 -29.3
2011-Apr-25 09:00N 68°09' W 029°07'1 0.5 999.6 -29.3
2011-Apr-25 08:00N 68°09' W 029°05'1 0.6 998.8 -29.3
2011-Apr-25 07:00N 68°09' W 029°04'1 0.5 997.6 -29.4
2011-Apr-25 06:00N 68°09' W 029°03'0 0.4 996.4 -29.4
2011-Apr-25 05:00N 68°09' W 029°01'0 0.3 995.3 -29.4
2011-Apr-25 04:00N 68°09' W 029°01'1 0.2 994.4 -29.5
2011-Apr-25 01:00N 68°09' W 028°59'0 0.3 991.4 -29.5
2011-Apr-25 00:00N 68°10' W 028°58'0 0.3 990.3 -29.6
2011-Apr-24 23:00N 68°10' W 028°58'0 0.4 988.7 -29.6
2011-Apr-24 22:00N 68°10' W 028°57'1 0.5 987.3 -29.7
2011-Apr-24 21:00N 68°10' W 028°55'1 0.5 986.3 -29.7
2011-Apr-24 20:00N 68°10' W 028°54'1 0.6 985.4 -29.8
2011-Apr-24 19:00N 68°10' W 028°52'0 0.5 984.6 -29.8
2011-Apr-24 18:00N 68°10' W 028°51'0 0.4 983.9 -29.9
2011-Apr-24 17:00N 68°10' W 028°50'0 0.3 983.5 -29.9
2011-Apr-24 16:00N 68°11' W 028°49'0 0.2 983.8 -30.0
2011-Apr-24 15:00N 68°11' W 028°49'0 0.1 984.1 -30.1
2011-Apr-24 14:00N 68°11' W 028°49'0 0.1 984.2 -30.2
2011-Apr-24 13:00N 68°11' W 028°48'0 0.2 984.2 -30.3
2011-Apr-24 12:00N 68°11' W 028°48'0 0.2 984.1 -30.4
2011-Apr-24 11:00N 68°11' W 028°47'0 0.4 984.5 -30.5
2011-Apr-24 10:00N 68°11' W 028°46'0 0.4 985.1 -30.5
2011-Apr-24 09:00N 68°11' W 028°45'0 0.5 986.0 -30.5
2011-Apr-24 08:00N 68°11' W 028°44'1 0.6 986.6 -30.6
2011-Apr-24 07:00N 68°11' W 028°42'1 0.6 987.1 -30.6
2011-Apr-24 06:00N 68°12' W 028°41'0 0.4 987.9 -30.7
2011-Apr-24 05:00N 68°12' W 028°40'0 0.2 988.7 -30.7
2011-Apr-24 04:00N 68°12' W 028°39'0 0.2 989.8 -30.7
2011-Apr-24 03:00N 68°12' W 028°39'0 0.0 991.3 -30.7
2011-Apr-23 23:00N 68°12' W 028°39'0 0.2 996.5 -30.8
2011-Apr-23 22:00N 68°12' W 028°39'0 0.4 997.4 -30.8
2011-Apr-23 21:00N 68°12' W 028°38'1 0.5 998.6 -30.9
2011-Apr-23 20:00N 68°12' W 028°36'1 0.7 999.5 -30.9
2011-Apr-23 19:00N 68°13' W 028°35'1 0.7 1000.7 -30.9
2011-Apr-23 18:00N 68°13' W 028°33'1 0.7 1001.4 -30.9
2011-Apr-23 17:00N 68°13' W 028°31'1 0.5 1001.8 -30.9
2011-Apr-23 16:00N 68°13' W 028°30'1 0.3 1002.3 -30.9
2011-Apr-23 14:00N 68°14' W 028°29'0 0.1 1003.4 -31.0
2011-Apr-23 13:00N 68°14' W 028°28'0 0.1 1003.7 -31.0
2011-Apr-23 12:00N 68°14' W 028°28'0 0.1 1003.5 -31.0
2011-Apr-23 11:00N 68°14' W 028°28'0 0.2 1003.6 -31.0
2011-Apr-23 10:00N 68°14' W 028°27'0 0.4 1003.6 -31.0
2011-Apr-23 09:00N 68°14' W 028°26'1 0.5 1003.1 -31.0
2011-Apr-23 08:00N 68°14' W 028°25'1 0.7 1003.1 -31.1
2011-Apr-23 07:00N 68°14' W 028°23'1 0.8 1002.6 -31.1
2011-Apr-23 06:00N 68°14' W 028°21'1 0.6 1002.1 -31.1
2011-Apr-23 05:00N 68°14' W 028°19'0 0.1 1001.7 -31.1
2011-Apr-23 00:00N 68°14' W 028°18'0 0.0 999.7 -31.2
2011-Apr-22 23:00N 68°14' W 028°18'0 0.1 999.5 -31.2
2011-Apr-22 22:00N 68°14' W 028°18'0 0.4 998.7 -31.2
2011-Apr-22 21:00N 68°14' W 028°17'1 0.6 997.8 -31.2
2011-Apr-22 20:00N 68°14' W 028°15'1 0.9 997.1 -31.2
2011-Apr-22 19:00N 68°15' W 028°13'1 1.0 996.7 -31.2
2011-Apr-22 18:00N 68°15' W 028°10'1 0.7 996.3 -31.2
2011-Apr-22 17:00N 68°15' W 028°08'1 0.5 995.4 -31.2
2011-Apr-22 16:00N 68°15' W 028°07'0 0.3 994.6 -31.2
2011-Apr-22 15:00N 68°15' W 028°07'0 0.2 993.1 -31.2
2011-Apr-22 14:00N 68°15' W 028°06'0 0.0 992.1 -31.2
2011-Apr-22 13:00N 68°15' W 028°06'0 0.0 992.1 -31.2
2011-Apr-22 12:00N 68°15' W 028°06'0 0.0 992.4 -31.2
2011-Apr-22 11:00N 68°15' W 028°06'0 0.3 992.5 -31.2
2011-Apr-22 10:00N 68°15' W 028°05'1 0.5 991.7 -31.2
2011-Apr-22 09:00N 68°15' W 028°04'1 0.8 992.3 -31.2
2011-Apr-22 08:00N 68°15' W 028°02'3 1.3 991.9 -31.3
2011-Apr-22 06:00N 68°16' W 027°55'2 1.6 989.8 -31.3
2011-Apr-22 05:00N 68°16' W 027°50'1 1.5 990.1 -31.2
2011-Apr-22 04:00N 68°16' W 027°46'1 1.2 991.2 -31.3
2011-Apr-22 03:00N 68°17' W 027°43'1 0.9 992.1 -31.3
2011-Apr-22 02:00N 68°17' W 027°41'1 0.4 992.9 -31.3
2011-Apr-21 23:00N 68°17' W 027°38'0 0.2 997.5 -31.2
2011-Apr-21 22:00N 68°17' W 027°37'0 0.4 998.6 -31.3
2011-Apr-21 21:00N 68°17' W 027°36'1 0.6 1000.6 -31.3
2011-Apr-21 20:00N 68°17' W 027°34'1 0.9 1001.3 -31.3
2011-Apr-21 19:00N 68°17' W 027°32'1 1.1 1002.0 -31.2
2011-Apr-21 18:00N 68°17' W 027°29'1 1.2 1002.4 -31.3
2011-Apr-21 17:00N 68°18' W 027°26'1 1.1 1002.3 -31.3
2011-Apr-21 16:00N 68°18' W 027°23'1 0.9 1002.3 -31.3
2011-Apr-21 15:00N 68°18' W 027°21'0 0.5 1002.9 -31.3
2011-Apr-21 14:00N 68°18' W 027°20'0 0.2 1003.0 -31.3
2011-Apr-21 13:00N 68°19' W 027°19'0 0.1 1002.8 -31.3
2011-Apr-21 12:00N 68°19' W 027°20'0 0.4 1002.4 -31.3
2011-Apr-21 11:00N 68°19' W 027°21'0 0.4 1002.2 -31.3
2011-Apr-21 10:00N 68°18' W 027°21'0 0.2 1001.3 -31.3
2011-Apr-21 09:00N 68°18' W 027°22'0 0.1 1000.5 -31.3
2011-Apr-21 08:00N 68°18' W 027°22'0 0.4 999.8 -31.3
2011-Apr-21 07:00N 68°18' W 027°20'1 0.6 999.0 -31.3
2011-Apr-21 06:00N 68°19' W 027°19'1 0.9 998.5 -31.3
2011-Apr-21 05:00N 68°19' W 027°16'1 1.0 997.1 -31.3
2011-Apr-21 04:00N 68°19' W 027°14'1 0.8 995.9 -31.3
2011-Apr-21 03:00N 68°20' W 027°12'1 0.5 994.8 -31.3
2011-Apr-21 02:00N 68°20' W 027°11'0 0.1 993.2 -31.3
2011-Apr-20 23:00N 68°20' W 027°12'0 0.2 987.9 -31.3
2011-Apr-20 22:00N 68°20' W 027°13'0 0.1 986.4 -31.3
2011-Apr-20 21:00N 68°20' W 027°13'0 0.3 984.8 -31.3
2011-Apr-20 20:00N 68°20' W 027°12'1 0.8 983.7 -31.3
2011-Apr-20 19:00N 68°20' W 027°10'1 1.3 982.8 -31.3
2011-Apr-20 18:00N 68°20' W 027°06'2 1.6 983.0 -31.3
2011-Apr-20 17:00N 68°20' W 027°02'2 1.6 982.1 -31.3
2011-Apr-20 16:00N 68°20' W 026°58'1 1.5 983.1 -31.3
2011-Apr-20 15:00N 68°21' W 026°54'1 1.2 984.0 -31.3
2011-Apr-20 14:00N 68°21' W 026°51'1 0.8 984.8 -31.3
2011-Apr-20 13:00N 68°22' W 026°49'0 0.4 985.3 -31.3
2011-Apr-20 12:00N 68°22' W 026°49'0 0.2 985.5 -31.3
2011-Apr-20 11:00N 68°22' W 026°49'0 0.4 985.7 -31.3
2011-Apr-20 10:00N 68°22' W 026°50'0 0.5 985.7 -31.4
2011-Apr-20 09:00N 68°22' W 026°52'0 0.3 985.8 -31.3
2011-Apr-20 08:00N 68°22' W 026°52'0 0.2 985.6 -31.3
2011-Apr-20 07:00N 68°22' W 026°52'0 0.4 985.6 -31.4
2011-Apr-20 06:00N 68°22' W 026°51'1 0.8 985.6 -31.4
2011-Apr-20 05:00N 68°22' W 026°49'1 1.0 985.7 -31.4
2011-Apr-20 04:00N 68°23' W 026°46'3 0.7 986.2 -31.4
2011-Apr-20 00:00N 68°24' W 026°40'0 0.3 987.8 -31.4
2011-Apr-19 23:00N 68°25' W 026°40'0 0.5 988.3 -31.4
2011-Apr-19 22:00N 68°25' W 026°41'1 0.5 988.7 -31.4
2011-Apr-19 21:00N 68°25' W 026°43'0 0.4 988.9 -31.4
2011-Apr-19 20:00N 68°25' W 026°44'0 0.2 989.2 -31.4
2011-Apr-19 19:00N 68°25' W 026°44'0 0.1 989.6 -31.4
2011-Apr-19 18:00N 68°25' W 026°44'0 0.4 989.6 -31.4
2011-Apr-19 17:00N 68°25' W 026°43'1 0.6 990.1 -31.4
2011-Apr-19 16:00N 68°25' W 026°42'1 0.7 990.4 -31.4
2011-Apr-19 15:00N 68°26' W 026°40'1 0.6 990.9 -31.4
2011-Apr-19 14:00N 68°26' W 026°39'0 0.4 991.3 -31.4
2011-Apr-19 13:00N 68°26' W 026°38'0 0.2 991.4 -31.4
2011-Apr-19 12:00N 68°26' W 026°38'0 0.4 991.5 -31.4
2011-Apr-19 11:00N 68°26' W 026°39'1 0.6 991.5 -31.4
2011-Apr-19 10:00N 68°26' W 026°41'1 0.7 991.6 -31.4
2011-Apr-19 09:00N 68°26' W 026°42'1 0.7 991.9 -31.5
2011-Apr-19 08:00N 68°26' W 026°44'0 0.4 992.0 -31.5
2011-Apr-19 07:00N 68°26' W 026°45'0 0.2 992.4 -31.5
2011-Apr-19 06:00N 68°26' W 026°46'0 0.1 992.3 -31.5
2011-Apr-19 05:00N 68°26' W 026°45'0 0.5 992.7 -31.5
2011-Apr-19 04:00N 68°26' W 026°44'1 0.7 992.9 -31.5
2011-Apr-19 03:00N 68°27' W 026°42'1 0.7 993.3 -31.5
2011-Apr-19 02:00N 68°27' W 026°41'1 0.3 993.8 -31.5
2011-Apr-18 23:00N 68°27' W 026°38'0 0.3 995.5 -31.5
2011-Apr-18 22:00N 68°27' W 026°39'1 0.5 996.1 -31.5
2011-Apr-18 21:00N 68°27' W 026°41'1 0.6 996.9 -31.5
2011-Apr-18 20:00N 68°27' W 026°42'1 0.5 997.8 -31.5
2011-Apr-18 19:00N 68°27' W 026°44'0 0.2 998.7 -31.5
2011-Apr-18 18:00N 68°27' W 026°44'0 0.1 999.4 -31.5
2011-Apr-18 17:00N 68°27' W 026°44'0 0.3 1000.5 -31.5
2011-Apr-18 16:00N 68°27' W 026°43'1 0.5 1001.8 -31.5
2011-Apr-18 15:00N 68°28' W 026°42'1 0.6 1003.3 -31.5
2011-Apr-18 13:00N 68°28' W 026°39'0 0.5 1005.2 -31.5
2011-Apr-18 12:00N 68°28' W 026°38'0 0.3 1006.1 -31.6
2011-Apr-18 11:00N 68°28' W 026°37'0 0.1 1007.0 -31.5
2011-Apr-18 10:00N 68°28' W 026°37'0 0.2 1007.8 -31.5
2011-Apr-18 09:00N 68°28' W 026°37'0 0.3 1008.6 -31.6
2011-Apr-18 08:00N 68°28' W 026°38'0 0.3 1009.0 -31.6
2011-Apr-18 07:00N 68°28' W 026°39'0 0.1 1009.6 -31.6
2011-Apr-18 06:00N 68°28' W 026°39'0 0.1 1009.8 -31.6
2011-Apr-18 05:00N 68°28' W 026°39'0 0.3 1010.3 -31.6
2011-Apr-18 04:00N 68°28' W 026°38'1 0.6 1010.4 -31.6
2011-Apr-18 03:00N 68°28' W 026°36'3 2.9 1010.5 -31.6
2011-Apr-18 02:00N 68°26' W 026°35'4 1.9 1010.9 -31.6
2011-Apr-18 00:00N 68°29' W 026°32'0 0.3 1010.9 -31.6
2011-Apr-17 23:00N 68°29' W 026°31'0 0.1 1010.8 -31.6
2011-Apr-17 22:00N 68°29' W 026°31'0 0.1 1010.6 -31.6
2011-Apr-17 21:00N 68°29' W 026°31'0 0.2 1009.8 -31.6
2011-Apr-17 20:00N 68°29' W 026°32'0 0.2 1009.5 -31.6
2011-Apr-17 19:00N 68°29' W 026°32'0 0.0 1008.9 -31.6
2011-Apr-17 18:00N 68°29' W 026°32'0 0.1 1008.0 -31.6
2011-Apr-17 17:00N 68°29' W 026°32'0 0.4 1007.7 -31.6
2011-Apr-17 16:00N 68°29' W 026°31'1 0.6 1007.2 -31.6
2011-Apr-17 15:00N 68°30' W 026°29'1 0.8 1006.5 -31.6
2011-Apr-17 14:00N 68°30' W 026°27'1 0.8 1006.0 -31.6
2011-Apr-17 13:00N 68°30' W 026°25'1 0.6 1005.5 -31.6
2011-Apr-17 12:00N 68°31' W 026°24'0 0.3 1004.9 -31.6
2011-Apr-17 11:00N 68°31' W 026°23'0 0.1 1004.4 -31.6
2011-Apr-17 10:00N 68°31' W 026°23'0 0.1 1003.6 -31.7
2011-Apr-17 09:00N 68°31' W 026°23'0 0.1 1003.0 -31.6
2011-Apr-17 08:00N 68°31' W 026°23'0 0.1 1001.9 -31.7
2011-Apr-17 07:00N 68°31' W 026°23'0 0.1 1001.2 -31.7
2011-Apr-17 06:00N 68°31' W 026°23'0 0.0 1000.4 -31.6
2011-Apr-17 05:00N 68°31' W 026°23'0 0.3 999.5 -31.7
2011-Apr-17 04:00N 68°31' W 026°22'1 0.5 999.0 -31.7
2011-Apr-17 03:00N 68°31' W 026°21'1 0.7 998.4 -31.7
2011-Apr-17 02:00N 68°31' W 026°19'3 0.8 997.7 -31.7
2011-Apr-16 22:00N 68°33' W 026°12'0 0.4 996.2 -31.7
2011-Apr-16 21:00N 68°33' W 026°11'0 0.3 995.2 -31.7
2011-Apr-16 20:00N 68°33' W 026°10'0 0.2 994.5 -31.7
2011-Apr-16 19:00N 68°33' W 026°10'   994.3 -31.7

Dump ship's entire track history